SAVY/PMY METAR and TAF weather

Enter ICAO airport designator
Station Type Date Time Source
SAVY METAR 2019/10/10 20:20 UTC NOAA

SAVY 102020Z 27020KT 9999 -RA SCT030 SCT050 BKN200 18/10 Q0998


Station Type Date Time Source
SAVY Decoded METAR 2019/10/10 20:20 UTC NOAA

Puerto Madryn, CHT, Argentina (SAVY) 42-45-33S 065-06-10W
Oct 10, 2019 - 04:20 PM EDT / 2019.10.10 2020 UTC
Wind: from the W (270 degrees) at 23 MPH (20 KT):0
Visibility: greater than 7 mile(s):0
Sky conditions: mostly cloudy
Weather: light rain
Temperature: 64 F (18 C)
Dew Point: 50 F (10 C)
Relative Humidity: 59%
Pressure (altimeter): 29.47 in. Hg (0998 hPa)
ob: SAVY 102020Z 27020KT 9999 -RA SCT030 SCT050 BKN200 18/10 Q0998
cycle: 20

Station Type Date Time Source
SAVY TAF UTC NOAA

Error!

Example: see airport list